Terminal Aerodrome Forecast
Issued by NWS

Current Version | Previous Version | Graphics & Text | Print | Product List | Glossary On
Versions: 1 2 3 4 5 6 7 8 9 10 11 12 13 14
124
FTUS41 KPBZ 222006 AAA
TAFMGW
TAF AMD
KMGW 222006Z 2220/2318 34006KT P6SM OVC030
     FM222300 01008KT P6SM OVC035
     FM230200 01008KT P6SM OVC030
     FM230800 05006KT P6SM BKN040
     FM231400 06006KT P6SM BKN060=

USA.gov is the U.S. government's official web portal to all federal, state and local government web resources and services.